sensor_id;sensor_type;location;lat;lon;timestamp;P1;durP1;ratioP1;P2;durP2;ratioP2
35366;SDS011;21465;52.278;20.962;2023-02-11T00:00:12;15.10;;;11.95;;
35366;SDS011;21465;52.278;20.962;2023-02-11T00:02:58;15.73;;;11.20;;
35366;SDS011;21465;52.278;20.962;2023-02-11T00:05:24;14.35;;;12.40;;
35366;SDS011;21465;52.278;20.962;2023-02-11T00:07:50;14.75;;;11.65;;
35366;SDS011;21465;52.278;20.962;2023-02-11T00:10:17;15.77;;;12.10;;
35366;SDS011;21465;52.278;20.962;2023-02-11T00:12:43;14.60;;;11.70;;
35366;SDS011;21465;52.278;20.962;2023-02-11T00:15:08;14.02;;;11.55;;
35366;SDS011;21465;52.278;20.962;2023-02-11T00:17:36;15.80;;;11.93;;
35366;SDS011;21465;52.278;20.962;2023-02-11T00:20:01;14.43;;;10.80;;
35366;SDS011;21465;52.278;20.962;2023-02-11T00:22:27;15.63;;;10.90;;
35366;SDS011;21465;52.278;20.962;2023-02-11T00:24:53;12.18;;;10.30;;
35366;SDS011;21465;52.278;20.962;2023-02-11T00:27:21;13.38;;;10.23;;
35366;SDS011;21465;52.278;20.962;2023-02-11T00:29:47;11.35;;;9.70;;
35366;SDS011;21465;52.278;20.962;2023-02-11T00:32:13;11.32;;;9.77;;
35366;SDS011;21465;52.278;20.962;2023-02-11T00:34:38;12.55;;;9.60;;
35366;SDS011;21465;52.278;20.962;2023-02-11T00:37:04;11.55;;;9.48;;
35366;SDS011;21465;52.278;20.962;2023-02-11T00:39:30;11.98;;;8.15;;
35366;SDS011;21465;52.278;20.962;2023-02-11T00:41:56;10.63;;;8.50;;
35366;SDS011;21465;52.278;20.962;2023-02-11T00:44:22;9.98;;;8.68;;
35366;SDS011;21465;52.278;20.962;2023-02-11T00:46:47;9.52;;;8.50;;
35366;SDS011;21465;52.278;20.962;2023-02-11T00:49:13;9.68;;;8.30;;
35366;SDS011;21465;52.278;20.962;2023-02-11T00:51:39;9.30;;;7.95;;
35366;SDS011;21465;52.278;20.962;2023-02-11T00:54:05;9.95;;;8.18;;
35366;SDS011;21465;52.278;20.962;2023-02-11T00:56:31;10.93;;;8.35;;
35366;SDS011;21465;52.278;20.962;2023-02-11T00:58:57;9.80;;;8.68;;
35366;SDS011;21465;52.278;20.962;2023-02-11T01:01:23;10.60;;;8.52;;
35366;SDS011;21465;52.278;20.962;2023-02-11T01:03:48;11.10;;;7.93;;
35366;SDS011;21465;52.278;20.962;2023-02-11T01:06:15;10.60;;;8.45;;
35366;SDS011;21465;52.278;20.962;2023-02-11T01:08:40;9.80;;;7.78;;
35366;SDS011;21465;52.278;20.962;2023-02-11T01:11:09;10.07;;;8.00;;
35366;SDS011;21465;52.278;20.962;2023-02-11T01:13:37;11.45;;;8.02;;
35366;SDS011;21465;52.278;20.962;2023-02-11T01:16:05;10.05;;;8.18;;
35366;SDS011;21465;52.278;20.962;2023-02-11T01:18:31;10.63;;;8.35;;
35366;SDS011;21465;52.278;20.962;2023-02-11T01:20:58;10.68;;;8.20;;
35366;SDS011;21465;52.278;20.962;2023-02-11T01:23:23;10.13;;;8.50;;
35366;SDS011;21465;52.278;20.962;2023-02-11T01:25:49;9.00;;;8.00;;
35366;SDS011;21465;52.278;20.962;2023-02-11T01:28:19;9.57;;;7.70;;
35366;SDS011;21465;52.278;20.962;2023-02-11T01:30:46;10.30;;;7.65;;
35366;SDS011;21465;52.278;20.962;2023-02-11T01:33:13;8.75;;;7.57;;
35366;SDS011;21465;52.278;20.962;2023-02-11T01:35:39;10.18;;;7.88;;
35366;SDS011;21465;52.278;20.962;2023-02-11T01:38:06;9.80;;;7.82;;
35366;SDS011;21465;52.278;20.962;2023-02-11T01:40:33;9.65;;;7.22;;
35366;SDS011;21465;52.278;20.962;2023-02-11T01:42:59;14.32;;;8.73;;
35366;SDS011;21465;52.278;20.962;2023-02-11T01:48:11;9.20;;;7.50;;
35366;SDS011;21465;52.278;20.962;2023-02-11T01:50:39;8.52;;;7.07;;
35366;SDS011;21465;52.278;20.962;2023-02-11T01:53:05;11.52;;;8.52;;
35366;SDS011;21465;52.278;20.962;2023-02-11T01:55:50;10.50;;;7.70;;
35366;SDS011;21465;52.278;20.962;2023-02-11T01:58:35;9.43;;;7.50;;
35366;SDS011;21465;52.278;20.962;2023-02-11T02:01:02;10.18;;;8.38;;
35366;SDS011;21465;52.278;20.962;2023-02-11T02:03:29;9.13;;;7.80;;
35366;SDS011;21465;52.278;20.962;2023-02-11T02:06:03;9.20;;;7.30;;
35366;SDS011;21465;52.278;20.962;2023-02-11T02:08:38;10.77;;;7.90;;
35366;SDS011;21465;52.278;20.962;2023-02-11T02:11:06;8.68;;;7.60;;
35366;SDS011;21465;52.278;20.962;2023-02-11T02:13:33;11.30;;;8.10;;
35366;SDS011;21465;52.278;20.962;2023-02-11T02:16:00;10.70;;;8.68;;
35366;SDS011;21465;52.278;20.962;2023-02-11T02:18:31;11.10;;;7.93;;
35366;SDS011;21465;52.278;20.962;2023-02-11T02:29:22;11.15;;;8.43;;
35366;SDS011;21465;52.278;20.962;2023-02-11T02:37:50;11.20;;;8.32;;
35366;SDS011;21465;52.278;20.962;2023-02-11T02:40:29;12.05;;;9.35;;
35366;SDS011;21465;52.278;20.962;2023-02-11T02:43:01;10.85;;;8.70;;
35366;SDS011;21465;52.278;20.962;2023-02-11T02:45:28;10.73;;;8.07;;
35366;SDS011;21465;52.278;20.962;2023-02-11T02:47:54;10.02;;;7.85;;
35366;SDS011;21465;52.278;20.962;2023-02-11T02:50:21;10.13;;;8.10;;
35366;SDS011;21465;52.278;20.962;2023-02-11T03:01:34;9.82;;;8.75;;
35366;SDS011;21465;52.278;20.962;2023-02-11T03:07:04;9.57;;;7.35;;
35366;SDS011;21465;52.278;20.962;2023-02-11T03:09:53;14.95;;;7.78;;
35366;SDS011;21465;52.278;20.962;2023-02-11T03:12:23;10.98;;;8.20;;
35366;SDS011;21465;52.278;20.962;2023-02-11T03:14:50;8.82;;;7.20;;
35366;SDS011;21465;52.278;20.962;2023-02-11T03:17:17;10.73;;;7.20;;
35366;SDS011;21465;52.278;20.962;2023-02-11T03:19:44;8.05;;;6.95;;
35366;SDS011;21465;52.278;20.962;2023-02-11T03:23:12;11.23;;;7.97;;
35366;SDS011;21465;52.278;20.962;2023-02-11T03:25:11;8.02;;;6.70;;
35366;SDS011;21465;52.278;20.962;2023-02-11T03:27:46;8.40;;;6.90;;
35366;SDS011;21465;52.278;20.962;2023-02-11T03:30:29;10.98;;;7.80;;
35366;SDS011;21465;52.278;20.962;2023-02-11T03:33:06;8.35;;;7.03;;
35366;SDS011;21465;52.278;20.962;2023-02-11T03:35:38;9.73;;;7.10;;
35366;SDS011;21465;52.278;20.962;2023-02-11T03:38:35;9.00;;;7.40;;
35366;SDS011;21465;52.278;20.962;2023-02-11T03:41:03;8.57;;;7.25;;
35366;SDS011;21465;52.278;20.962;2023-02-11T03:43:35;10.50;;;7.82;;
35366;SDS011;21465;52.278;20.962;2023-02-11T03:46:05;9.30;;;6.88;;
35366;SDS011;21465;52.278;20.962;2023-02-11T03:48:32;9.32;;;7.00;;
35366;SDS011;21465;52.278;20.962;2023-02-11T03:51:04;9.00;;;7.38;;
35366;SDS011;21465;52.278;20.962;2023-02-11T03:53:31;9.05;;;6.80;;
35366;SDS011;21465;52.278;20.962;2023-02-11T03:55:59;9.52;;;7.75;;
35366;SDS011;21465;52.278;20.962;2023-02-11T03:58:26;9.52;;;6.85;;
35366;SDS011;21465;52.278;20.962;2023-02-11T04:00:51;9.73;;;7.45;;
35366;SDS011;21465;52.278;20.962;2023-02-11T04:03:17;9.35;;;7.95;;
35366;SDS011;21465;52.278;20.962;2023-02-11T04:05:43;7.43;;;6.63;;
35366;SDS011;21465;52.278;20.962;2023-02-11T04:08:09;8.40;;;7.28;;
35366;SDS011;21465;52.278;20.962;2023-02-11T04:10:35;10.77;;;8.13;;
35366;SDS011;21465;52.278;20.962;2023-02-11T04:13:00;9.82;;;7.95;;
35366;SDS011;21465;52.278;20.962;2023-02-11T04:15:26;11.27;;;8.80;;
35366;SDS011;21465;52.278;20.962;2023-02-11T04:17:52;9.18;;;7.78;;
35366;SDS011;21465;52.278;20.962;2023-02-11T04:20:18;8.75;;;7.70;;
35366;SDS011;21465;52.278;20.962;2023-02-11T04:22:43;10.82;;;8.25;;
35366;SDS011;21465;52.278;20.962;2023-02-11T04:25:09;11.50;;;8.20;;
35366;SDS011;21465;52.278;20.962;2023-02-11T04:27:35;10.07;;;8.02;;
35366;SDS011;21465;52.278;20.962;2023-02-11T04:30:02;10.32;;;8.10;;
35366;SDS011;21465;52.278;20.962;2023-02-11T04:32:28;9.40;;;8.43;;
35366;SDS011;21465;52.278;20.962;2023-02-11T04:34:54;10.85;;;8.77;;
35366;SDS011;21465;52.278;20.962;2023-02-11T04:37:20;10.75;;;9.43;;
35366;SDS011;21465;52.278;20.962;2023-02-11T04:39:47;10.02;;;8.77;;
35366;SDS011;21465;52.278;20.962;2023-02-11T04:42:12;11.63;;;9.68;;
35366;SDS011;21465;52.278;20.962;2023-02-11T04:44:38;10.70;;;8.52;;
35366;SDS011;21465;52.278;20.962;2023-02-11T04:47:04;10.40;;;9.35;;
35366;SDS011;21465;52.278;20.962;2023-02-11T04:49:30;10.88;;;8.90;;
35366;SDS011;21465;52.278;20.962;2023-02-11T04:51:56;11.13;;;9.90;;
35366;SDS011;21465;52.278;20.962;2023-02-11T04:54:21;10.25;;;9.20;;
35366;SDS011;21465;52.278;20.962;2023-02-11T04:56:47;10.98;;;9.32;;
35366;SDS011;21465;52.278;20.962;2023-02-11T04:59:14;11.02;;;9.77;;
35366;SDS011;21465;52.278;20.962;2023-02-11T05:01:40;11.57;;;9.50;;
35366;SDS011;21465;52.278;20.962;2023-02-11T05:04:07;12.85;;;10.18;;
35366;SDS011;21465;52.278;20.962;2023-02-11T05:06:33;10.65;;;9.15;;
35366;SDS011;21465;52.278;20.962;2023-02-11T05:08:59;11.05;;;8.90;;
35366;SDS011;21465;52.278;20.962;2023-02-11T05:11:25;10.63;;;9.48;;
35366;SDS011;21465;52.278;20.962;2023-02-11T05:13:51;11.88;;;10.55;;
35366;SDS011;21465;52.278;20.962;2023-02-11T05:16:17;11.38;;;9.38;;
35366;SDS011;21465;52.278;20.962;2023-02-11T05:18:43;14.10;;;10.40;;
35366;SDS011;21465;52.278;20.962;2023-02-11T05:21:11;10.68;;;9.50;;
35366;SDS011;21465;52.278;20.962;2023-02-11T05:23:39;10.55;;;9.40;;
35366;SDS011;21465;52.278;20.962;2023-02-11T05:26:05;11.18;;;9.50;;
35366;SDS011;21465;52.278;20.962;2023-02-11T05:28:31;11.93;;;10.05;;
35366;SDS011;21465;52.278;20.962;2023-02-11T05:30:57;11.55;;;9.38;;
35366;SDS011;21465;52.278;20.962;2023-02-11T05:33:23;10.52;;;9.43;;
35366;SDS011;21465;52.278;20.962;2023-02-11T05:35:49;11.38;;;9.77;;
35366;SDS011;21465;52.278;20.962;2023-02-11T05:38:15;11.45;;;9.75;;
35366;SDS011;21465;52.278;20.962;2023-02-11T05:40:41;12.18;;;10.18;;
35366;SDS011;21465;52.278;20.962;2023-02-11T05:43:07;12.10;;;10.20;;
35366;SDS011;21465;52.278;20.962;2023-02-11T05:45:33;11.52;;;10.32;;
35366;SDS011;21465;52.278;20.962;2023-02-11T05:47:59;11.77;;;10.25;;
35366;SDS011;21465;52.278;20.962;2023-02-11T05:50:25;12.27;;;10.68;;
35366;SDS011;21465;52.278;20.962;2023-02-11T05:52:51;11.00;;;9.57;;
35366;SDS011;21465;52.278;20.962;2023-02-11T05:55:16;13.57;;;10.52;;
35366;SDS011;21465;52.278;20.962;2023-02-11T05:57:42;11.75;;;9.57;;
35366;SDS011;21465;52.278;20.962;2023-02-11T06:00:08;13.18;;;10.32;;
35366;SDS011;21465;52.278;20.962;2023-02-11T06:02:34;11.40;;;10.18;;
35366;SDS011;21465;52.278;20.962;2023-02-11T06:05:00;10.60;;;9.18;;
35366;SDS011;21465;52.278;20.962;2023-02-11T06:07:26;10.60;;;9.45;;
35366;SDS011;21465;52.278;20.962;2023-02-11T06:09:52;13.30;;;10.52;;
35366;SDS011;21465;52.278;20.962;2023-02-11T06:12:21;11.13;;;9.65;;
35366;SDS011;21465;52.278;20.962;2023-02-11T06:14:46;11.20;;;10.10;;
35366;SDS011;21465;52.278;20.962;2023-02-11T06:17:13;10.88;;;9.77;;
35366;SDS011;21465;52.278;20.962;2023-02-11T06:19:42;10.05;;;9.05;;
35366;SDS011;21465;52.278;20.962;2023-02-11T06:22:08;18.52;;;10.85;;
35366;SDS011;21465;52.278;20.962;2023-02-11T06:24:34;9.93;;;9.00;;
35366;SDS011;21465;52.278;20.962;2023-02-11T06:27:03;14.02;;;10.95;;
35366;SDS011;21465;52.278;20.962;2023-02-11T06:29:29;11.23;;;9.95;;
35366;SDS011;21465;52.278;20.962;2023-02-11T06:31:55;11.57;;;10.38;;
35366;SDS011;21465;52.278;20.962;2023-02-11T06:34:21;11.73;;;10.18;;
35366;SDS011;21465;52.278;20.962;2023-02-11T06:36:47;11.43;;;10.10;;
35366;SDS011;21465;52.278;20.962;2023-02-11T06:39:15;11.52;;;10.32;;
35366;SDS011;21465;52.278;20.962;2023-02-11T06:41:41;10.73;;;9.65;;
35366;SDS011;21465;52.278;20.962;2023-02-11T06:44:08;12.05;;;10.38;;
35366;SDS011;21465;52.278;20.962;2023-02-11T06:46:37;12.35;;;9.98;;
35366;SDS011;21465;52.278;20.962;2023-02-11T06:49:03;12.38;;;10.07;;
35366;SDS011;21465;52.278;20.962;2023-02-11T06:51:29;11.10;;;9.88;;
35366;SDS011;21465;52.278;20.962;2023-02-11T06:53:54;11.80;;;10.60;;
35366;SDS011;21465;52.278;20.962;2023-02-11T06:56:20;11.98;;;10.77;;
35366;SDS011;21465;52.278;20.962;2023-02-11T06:58:50;12.55;;;11.35;;
35366;SDS011;21465;52.278;20.962;2023-02-11T07:01:18;11.52;;;10.30;;
35366;SDS011;21465;52.278;20.962;2023-02-11T07:03:47;13.15;;;11.38;;
35366;SDS011;21465;52.278;20.962;2023-02-11T07:06:14;13.57;;;10.80;;
35366;SDS011;21465;52.278;20.962;2023-02-11T07:08:41;11.65;;;10.45;;
35366;SDS011;21465;52.278;20.962;2023-02-11T07:13:37;13.82;;;11.98;;
35366;SDS011;21465;52.278;20.962;2023-02-11T07:16:06;13.98;;;11.50;;
35366;SDS011;21465;52.278;20.962;2023-02-11T07:18:42;13.82;;;11.85;;
35366;SDS011;21465;52.278;20.962;2023-02-11T07:21:11;18.07;;;12.00;;
35366;SDS011;21465;52.278;20.962;2023-02-11T07:23:38;12.83;;;11.50;;
35366;SDS011;21465;52.278;20.962;2023-02-11T07:26:07;13.50;;;12.10;;
35366;SDS011;21465;52.278;20.962;2023-02-11T07:28:36;14.07;;;12.60;;
35366;SDS011;21465;52.278;20.962;2023-02-11T07:31:09;13.95;;;12.35;;
35366;SDS011;21465;52.278;20.962;2023-02-11T07:33:39;13.93;;;12.45;;
35366;SDS011;21465;52.278;20.962;2023-02-11T07:36:06;14.48;;;12.50;;
35366;SDS011;21465;52.278;20.962;2023-02-11T07:38:33;14.18;;;12.77;;
35366;SDS011;21465;52.278;20.962;2023-02-11T07:41:00;14.13;;;12.63;;
35366;SDS011;21465;52.278;20.962;2023-02-11T07:43:27;14.48;;;12.88;;
35366;SDS011;21465;52.278;20.962;2023-02-11T07:45:53;14.60;;;13.10;;
35366;SDS011;21465;52.278;20.962;2023-02-11T07:48:22;14.15;;;12.65;;
35366;SDS011;21465;52.278;20.962;2023-02-11T07:50:48;15.93;;;13.60;;
35366;SDS011;21465;52.278;20.962;2023-02-11T07:53:14;14.75;;;13.20;;
35366;SDS011;21465;52.278;20.962;2023-02-11T07:55:41;16.88;;;13.75;;
35366;SDS011;21465;52.278;20.962;2023-02-11T07:58:07;15.05;;;13.25;;
35366;SDS011;21465;52.278;20.962;2023-02-11T08:00:33;14.98;;;13.38;;
35366;SDS011;21465;52.278;20.962;2023-02-11T08:02:59;15.38;;;13.73;;
35366;SDS011;21465;52.278;20.962;2023-02-11T08:05:25;15.68;;;14.07;;
35366;SDS011;21465;52.278;20.962;2023-02-11T08:07:51;15.48;;;13.82;;
35366;SDS011;21465;52.278;20.962;2023-02-11T08:10:17;17.25;;;14.90;;
35366;SDS011;21465;52.278;20.962;2023-02-11T08:12:43;16.15;;;13.90;;
35366;SDS011;21465;52.278;20.962;2023-02-11T08:15:09;16.42;;;14.60;;
35366;SDS011;21465;52.278;20.962;2023-02-11T08:17:35;18.00;;;14.73;;
35366;SDS011;21465;52.278;20.962;2023-02-11T08:20:02;17.08;;;13.73;;
35366;SDS011;21465;52.278;20.962;2023-02-11T08:22:30;17.10;;;15.32;;
35366;SDS011;21465;52.278;20.962;2023-02-11T08:24:56;19.45;;;15.48;;
35366;SDS011;21465;52.278;20.962;2023-02-11T08:27:23;16.70;;;14.70;;
35366;SDS011;21465;52.278;20.962;2023-02-11T08:29:51;16.80;;;15.00;;
35366;SDS011;21465;52.278;20.962;2023-02-11T08:32:20;16.25;;;14.52;;
35366;SDS011;21465;52.278;20.962;2023-02-11T08:34:49;17.60;;;15.15;;
35366;SDS011;21465;52.278;20.962;2023-02-11T08:39:42;16.13;;;14.32;;
35366;SDS011;21465;52.278;20.962;2023-02-11T08:42:07;16.40;;;14.57;;
35366;SDS011;21465;52.278;20.962;2023-02-11T08:44:34;16.52;;;14.75;;
35366;SDS011;21465;52.278;20.962;2023-02-11T08:47:02;16.23;;;14.52;;
35366;SDS011;21465;52.278;20.962;2023-02-11T08:49:28;18.75;;;16.77;;
35366;SDS011;21465;52.278;20.962;2023-02-11T08:51:54;16.15;;;14.23;;
35366;SDS011;21465;52.278;20.962;2023-02-11T08:54:23;16.70;;;14.90;;
35366;SDS011;21465;52.278;20.962;2023-02-11T08:56:50;16.50;;;14.02;;
35366;SDS011;21465;52.278;20.962;2023-02-11T08:59:16;20.77;;;17.42;;
35366;SDS011;21465;52.278;20.962;2023-02-11T09:01:42;17.75;;;15.73;;
35366;SDS011;21465;52.278;20.962;2023-02-11T09:04:08;16.40;;;14.80;;
35366;SDS011;21465;52.278;20.962;2023-02-11T09:06:34;17.98;;;14.50;;
35366;SDS011;21465;52.278;20.962;2023-02-11T09:09:00;16.10;;;14.50;;
35366;SDS011;21465;52.278;20.962;2023-02-11T09:11:27;16.23;;;14.52;;
35366;SDS011;21465;52.278;20.962;2023-02-11T09:13:55;16.30;;;14.60;;
35366;SDS011;21465;52.278;20.962;2023-02-11T09:16:22;17.33;;;14.48;;
35366;SDS011;21465;52.278;20.962;2023-02-11T09:18:50;17.33;;;15.50;;
35366;SDS011;21465;52.278;20.962;2023-02-11T09:21:16;17.02;;;15.30;;
35366;SDS011;21465;52.278;20.962;2023-02-11T09:23:43;15.07;;;13.50;;
35366;SDS011;21465;52.278;20.962;2023-02-11T09:26:33;16.23;;;14.52;;
35366;SDS011;21465;52.278;20.962;2023-02-11T09:28:59;16.42;;;14.73;;
35366;SDS011;21465;52.278;20.962;2023-02-11T09:31:26;15.35;;;13.75;;
35366;SDS011;21465;52.278;20.962;2023-02-11T09:33:55;16.10;;;14.40;;
35366;SDS011;21465;52.278;20.962;2023-02-11T09:36:23;16.38;;;14.68;;
35366;SDS011;21465;52.278;20.962;2023-02-11T09:38:51;16.65;;;14.55;;
35366;SDS011;21465;52.278;20.962;2023-02-11T09:43:58;17.17;;;14.77;;
35366;SDS011;21465;52.278;20.962;2023-02-11T09:46:29;16.90;;;15.20;;
35366;SDS011;21465;52.278;20.962;2023-02-11T09:48:59;17.35;;;14.85;;
35366;SDS011;21465;52.278;20.962;2023-02-11T09:54:14;20.52;;;15.93;;
35366;SDS011;21465;52.278;20.962;2023-02-11T09:56:45;17.60;;;15.77;;
35366;SDS011;21465;52.278;20.962;2023-02-11T09:59:15;19.77;;;16.58;;
35366;SDS011;21465;52.278;20.962;2023-02-11T10:01:53;18.45;;;16.23;;
35366;SDS011;21465;52.278;20.962;2023-02-11T10:10:03;17.63;;;15.82;;
35366;SDS011;21465;52.278;20.962;2023-02-11T10:12:42;22.23;;;17.35;;
35366;SDS011;21465;52.278;20.962;2023-02-11T10:23:21;19.65;;;17.02;;
35366;SDS011;21465;52.278;20.962;2023-02-11T10:25:50;17.80;;;15.95;;
35366;SDS011;21465;52.278;20.962;2023-02-11T10:28:20;18.52;;;16.35;;
35366;SDS011;21465;52.278;20.962;2023-02-11T10:30:58;18.98;;;16.23;;
35366;SDS011;21465;52.278;20.962;2023-02-11T10:33:27;17.80;;;15.95;;
35366;SDS011;21465;52.278;20.962;2023-02-11T10:35:57;18.88;;;15.95;;
35366;SDS011;21465;52.278;20.962;2023-02-11T10:38:23;18.92;;;16.67;;
35366;SDS011;21465;52.278;20.962;2023-02-11T10:40:49;19.80;;;17.70;;
35366;SDS011;21465;52.278;20.962;2023-02-11T10:43:15;17.95;;;15.73;;
35366;SDS011;21465;52.278;20.962;2023-02-11T10:45:47;18.77;;;16.52;;
35366;SDS011;21465;52.278;20.962;2023-02-11T10:51:32;19.75;;;17.33;;
35366;SDS011;21465;52.278;20.962;2023-02-11T10:56:39;18.55;;;16.55;;
35366;SDS011;21465;52.278;20.962;2023-02-11T11:01:53;19.88;;;17.17;;
35366;SDS011;21465;52.278;20.962;2023-02-11T11:07:19;22.75;;;18.70;;
35366;SDS011;21465;52.278;20.962;2023-02-11T11:09:51;22.70;;;17.73;;
35366;SDS011;21465;52.278;20.962;2023-02-11T11:12:45;21.38;;;17.65;;
35366;SDS011;21465;52.278;20.962;2023-02-11T11:17:49;20.65;;;17.95;;
35366;SDS011;21465;52.278;20.962;2023-02-11T11:22:48;24.60;;;19.83;;
35366;SDS011;21465;52.278;20.962;2023-02-11T11:25:27;23.73;;;18.77;;
35366;SDS011;21465;52.278;20.962;2023-02-11T11:27:55;23.13;;;19.15;;
35366;SDS011;21465;52.278;20.962;2023-02-11T11:30:22;25.83;;;19.98;;
35366;SDS011;21465;52.278;20.962;2023-02-11T11:32:52;26.77;;;20.27;;
35366;SDS011;21465;52.278;20.962;2023-02-11T11:35:25;23.40;;;19.60;;
35366;SDS011;21465;52.278;20.962;2023-02-11T11:37:53;23.20;;;19.48;;
35366;SDS011;21465;52.278;20.962;2023-02-11T11:40:21;26.23;;;20.55;;
35366;SDS011;21465;52.278;20.962;2023-02-11T11:45:51;25.52;;;20.90;;
35366;SDS011;21465;52.278;20.962;2023-02-11T11:50:57;24.10;;;19.77;;
35366;SDS011;21465;52.278;20.962;2023-02-11T11:56:22;25.90;;;20.38;;
35366;SDS011;21465;52.278;20.962;2023-02-11T11:58:49;24.50;;;20.73;;
35366;SDS011;21465;52.278;20.962;2023-02-11T12:01:25;28.17;;;21.00;;
35366;SDS011;21465;52.278;20.962;2023-02-11T12:06:55;25.08;;;20.88;;
35366;SDS011;21465;52.278;20.962;2023-02-11T12:12:43;25.58;;;20.35;;
35366;SDS011;21465;52.278;20.962;2023-02-11T12:26:23;25.75;;;21.35;;
35366;SDS011;21465;52.278;20.962;2023-02-11T12:31:25;26.38;;;21.95;;
35366;SDS011;21465;52.278;20.962;2023-02-11T12:42:43;24.40;;;20.38;;
35366;SDS011;21465;52.278;20.962;2023-02-11T12:51:00;24.40;;;20.92;;
35366;SDS011;21465;52.278;20.962;2023-02-11T12:56:35;23.00;;;20.17;;
35366;SDS011;21465;52.278;20.962;2023-02-11T12:59:04;24.27;;;20.30;;
35366;SDS011;21465;52.278;20.962;2023-02-11T13:01:37;25.10;;;19.83;;
35366;SDS011;21465;52.278;20.962;2023-02-11T13:04:10;23.20;;;19.75;;
35366;SDS011;21465;52.278;20.962;2023-02-11T13:06:50;24.55;;;19.95;;
35366;SDS011;21465;52.278;20.962;2023-02-11T13:09:25;22.00;;;18.40;;
35366;SDS011;21465;52.278;20.962;2023-02-11T13:11:57;24.00;;;20.30;;
35366;SDS011;21465;52.278;20.962;2023-02-11T13:14:44;24.50;;;21.08;;
35366;SDS011;21465;52.278;20.962;2023-02-11T13:17:17;21.67;;;19.38;;
35366;SDS011;21465;52.278;20.962;2023-02-11T13:19:48;21.60;;;18.67;;
35366;SDS011;21465;52.278;20.962;2023-02-11T13:24:51;24.83;;;21.27;;
35366;SDS011;21465;52.278;20.962;2023-02-11T13:32:27;24.20;;;20.75;;
35366;SDS011;21465;52.278;20.962;2023-02-11T13:35:35;23.02;;;19.83;;
35366;SDS011;21465;52.278;20.962;2023-02-11T13:38:03;25.00;;;20.92;;
35366;SDS011;21465;52.278;20.962;2023-02-11T13:40:43;24.75;;;20.05;;
35366;SDS011;21465;52.278;20.962;2023-02-11T13:43:19;25.35;;;21.75;;
35366;SDS011;21465;52.278;20.962;2023-02-11T13:45:47;25.40;;;21.17;;
35366;SDS011;21465;52.278;20.962;2023-02-11T13:48:14;25.00;;;21.73;;
35366;SDS011;21465;52.278;20.962;2023-02-11T13:50:47;26.27;;;22.75;;
35366;SDS011;21465;52.278;20.962;2023-02-11T13:53:14;25.38;;;21.35;;
35366;SDS011;21465;52.278;20.962;2023-02-11T13:55:45;28.98;;;22.80;;
35366;SDS011;21465;52.278;20.962;2023-02-11T14:00:52;26.27;;;21.73;;
35366;SDS011;21465;52.278;20.962;2023-02-11T14:09:04;25.15;;;21.10;;
35366;SDS011;21465;52.278;20.962;2023-02-11T14:14:28;23.30;;;20.58;;
35366;SDS011;21465;52.278;20.962;2023-02-11T14:19:31;25.25;;;19.60;;
35366;SDS011;21465;52.278;20.962;2023-02-11T14:22:02;23.67;;;18.83;;
35366;SDS011;21465;52.278;20.962;2023-02-11T14:26:57;23.20;;;20.35;;
35366;SDS011;21465;52.278;20.962;2023-02-11T14:29:42;24.23;;;19.95;;
35366;SDS011;21465;52.278;20.962;2023-02-11T14:40:33;21.10;;;18.80;;
35366;SDS011;21465;52.278;20.962;2023-02-11T14:43:14;21.35;;;18.95;;
35366;SDS011;21465;52.278;20.962;2023-02-11T14:45:44;21.23;;;18.92;;
35366;SDS011;21465;52.278;20.962;2023-02-11T14:48:17;19.33;;;17.30;;
35366;SDS011;21465;52.278;20.962;2023-02-11T14:53:19;20.25;;;18.08;;
35366;SDS011;21465;52.278;20.962;2023-02-11T14:55:47;21.20;;;19.00;;
35366;SDS011;21465;52.278;20.962;2023-02-11T14:58:37;18.50;;;16.60;;
35366;SDS011;21465;52.278;20.962;2023-02-11T15:01:03;21.13;;;18.42;;
35366;SDS011;21465;52.278;20.962;2023-02-11T15:03:38;19.63;;;17.50;;
35366;SDS011;21465;52.278;20.962;2023-02-11T15:06:15;18.15;;;16.25;;
35366;SDS011;21465;52.278;20.962;2023-02-11T15:08:52;20.80;;;17.80;;
35366;SDS011;21465;52.278;20.962;2023-02-11T15:11:22;19.92;;;17.80;;
35366;SDS011;21465;52.278;20.962;2023-02-11T15:13:49;20.48;;;17.52;;
35366;SDS011;21465;52.278;20.962;2023-02-11T15:16:23;21.33;;;18.00;;
35366;SDS011;21465;52.278;20.962;2023-02-11T15:18:54;17.88;;;16.00;;
35366;SDS011;21465;52.278;20.962;2023-02-11T15:21:25;20.17;;;17.90;;
35366;SDS011;21465;52.278;20.962;2023-02-11T15:23:55;20.48;;;16.98;;
35366;SDS011;21465;52.278;20.962;2023-02-11T15:26:22;19.77;;;17.30;;
35366;SDS011;21465;52.278;20.962;2023-02-11T15:28:48;19.67;;;16.63;;
35366;SDS011;21465;52.278;20.962;2023-02-11T15:31:17;20.08;;;17.00;;
35366;SDS011;21465;52.278;20.962;2023-02-11T15:33:45;18.02;;;16.13;;
35366;SDS011;21465;52.278;20.962;2023-02-11T15:36:11;18.10;;;15.93;;
35366;SDS011;21465;52.278;20.962;2023-02-11T15:38:38;18.23;;;15.38;;
35366;SDS011;21465;52.278;20.962;2023-02-11T15:41:05;17.58;;;14.80;;
35366;SDS011;21465;52.278;20.962;2023-02-11T15:43:41;16.98;;;14.23;;
35366;SDS011;21465;52.278;20.962;2023-02-11T15:46:09;17.63;;;15.32;;
35366;SDS011;21465;52.278;20.962;2023-02-11T15:48:37;17.05;;;15.25;;
35366;SDS011;21465;52.278;20.962;2023-02-11T15:51:28;17.02;;;14.77;;
35366;SDS011;21465;52.278;20.962;2023-02-11T15:54:03;19.25;;;14.70;;
35366;SDS011;21465;52.278;20.962;2023-02-11T15:56:39;17.17;;;15.57;;
35366;SDS011;21465;52.278;20.962;2023-02-11T16:01:39;16.08;;;14.27;;
35366;SDS011;21465;52.278;20.962;2023-02-11T16:04:05;15.32;;;13.73;;
35366;SDS011;21465;52.278;20.962;2023-02-11T16:06:35;14.63;;;13.10;;
35366;SDS011;21465;52.278;20.962;2023-02-11T16:09:18;15.63;;;13.57;;
35366;SDS011;21465;52.278;20.962;2023-02-11T16:16:45;14.77;;;13.23;;
35366;SDS011;21465;52.278;20.962;2023-02-11T16:19:16;15.55;;;13.55;;
35366;SDS011;21465;52.278;20.962;2023-02-11T16:21:46;14.85;;;13.35;;
35366;SDS011;21465;52.278;20.962;2023-02-11T16:24:17;14.45;;;12.95;;
35366;SDS011;21465;52.278;20.962;2023-02-11T16:26:46;15.63;;;13.57;;
35366;SDS011;21465;52.278;20.962;2023-02-11T16:29:16;13.57;;;12.18;;
35366;SDS011;21465;52.278;20.962;2023-02-11T16:31:46;13.25;;;11.85;;
35366;SDS011;21465;52.278;20.962;2023-02-11T16:34:16;14.43;;;12.93;;
35366;SDS011;21465;52.278;20.962;2023-02-11T16:36:47;13.70;;;12.27;;
35366;SDS011;21465;52.278;20.962;2023-02-11T16:39:13;13.80;;;12.40;;
35366;SDS011;21465;52.278;20.962;2023-02-11T16:41:39;15.23;;;13.63;;
35366;SDS011;21465;52.278;20.962;2023-02-11T16:44:05;14.70;;;13.20;;
35366;SDS011;21465;52.278;20.962;2023-02-11T16:46:34;13.07;;;11.77;;
35366;SDS011;21465;52.278;20.962;2023-02-11T16:49:14;12.98;;;11.68;;
35366;SDS011;21465;52.278;20.962;2023-02-11T16:51:42;12.55;;;11.25;;
35366;SDS011;21465;52.278;20.962;2023-02-11T16:54:11;13.77;;;12.48;;
35366;SDS011;21465;52.278;20.962;2023-02-11T16:56:38;11.40;;;10.30;;
35366;SDS011;21465;52.278;20.962;2023-02-11T16:59:04;12.35;;;11.18;;
35366;SDS011;21465;52.278;20.962;2023-02-11T17:01:30;12.52;;;11.23;;
35366;SDS011;21465;52.278;20.962;2023-02-11T17:03:56;10.13;;;9.10;;